createdAt,value
2019-06-27T00:00:41.305Z,14.05
2019-06-27T00:03:10.797Z,14.07
2019-06-27T00:05:40.491Z,13.35
2019-06-27T00:08:30.100Z,14.10
2019-06-27T00:10:59.722Z,14.63
2019-06-27T00:13:29.271Z,13.90
2019-06-27T00:15:58.767Z,13.45
2019-06-27T00:18:28.293Z,14.13
2019-06-27T00:20:59.424Z,14.80
2019-06-27T00:23:29.112Z,15.40
2019-06-27T00:25:58.657Z,14.85
2019-06-27T00:28:28.332Z,14.75
2019-06-27T00:30:57.834Z,14.73
2019-06-27T00:33:27.360Z,14.58
2019-06-27T00:35:56.968Z,14.78
2019-06-27T00:38:26.522Z,14.68
2019-06-27T00:41:15.336Z,15.28
2019-06-27T00:43:44.874Z,14.73
2019-06-27T00:46:14.454Z,15.20
2019-06-27T00:48:43.983Z,14.85
2019-06-27T00:51:13.492Z,15.80
2019-06-27T00:53:43.022Z,15.68
2019-06-27T00:56:12.489Z,14.50
2019-06-27T00:58:41.999Z,15.80
2019-06-27T01:01:11.645Z,14.53
2019-06-27T01:03:41.136Z,15.70
2019-06-27T01:06:10.643Z,15.43
2019-06-27T01:08:40.178Z,15.38
2019-06-27T01:11:09.717Z,16.00
2019-06-27T01:13:39.259Z,15.75
2019-06-27T01:16:08.956Z,15.88
2019-06-27T01:18:38.427Z,16.45
2019-06-27T01:21:08.177Z,15.32
2019-06-27T01:23:37.763Z,15.53
2019-06-27T01:26:07.288Z,14.70
2019-06-27T01:28:36.796Z,15.98
2019-06-27T01:31:06.399Z,15.83
2019-06-27T01:33:55.226Z,16.02
2019-06-27T01:36:24.889Z,16.07
2019-06-27T01:38:54.441Z,16.82
2019-06-27T01:41:23.981Z,16.20
2019-06-27T01:43:53.933Z,15.72
2019-06-27T01:46:23.455Z,15.85
2019-06-27T01:49:12.315Z,16.23
2019-06-27T01:51:41.824Z,15.18
2019-06-27T01:54:11.327Z,16.55
2019-06-27T01:57:00.184Z,16.95
2019-06-27T01:59:30.099Z,16.00
2019-06-27T02:01:59.761Z,15.83
2019-06-27T02:04:29.345Z,16.32
2019-06-27T02:06:59.019Z,16.37
2019-06-27T02:09:33.360Z,16.32
2019-06-27T02:12:01.720Z,15.90
2019-06-27T02:14:50.508Z,16.50
2019-06-27T02:17:20.067Z,16.85
2019-06-27T02:19:49.588Z,16.57
2019-06-27T02:22:19.230Z,16.73
2019-06-27T02:24:48.861Z,16.30
2019-06-27T02:27:18.361Z,15.98
2019-06-27T02:29:47.844Z,16.87
2019-06-27T02:32:17.410Z,16.67
2019-06-27T02:34:46.879Z,16.70
2019-06-27T02:37:16.452Z,16.82
2019-06-27T02:39:45.937Z,17.35
2019-06-27T02:42:15.448Z,16.80
2019-06-27T02:44:44.954Z,16.67
2019-06-27T02:47:14.598Z,16.73
2019-06-27T02:49:44.159Z,16.70
2019-06-27T02:52:13.814Z,16.52
2019-06-27T02:54:43.426Z,16.90
2019-06-27T02:57:12.923Z,16.77
2019-06-27T02:59:42.480Z,16.30
2019-06-27T03:02:11.986Z,16.45
2019-06-27T03:04:41.505Z,15.85
2019-06-27T03:07:11.330Z,16.25
2019-06-27T03:09:41.021Z,16.95
2019-06-27T03:12:29.976Z,16.65
2019-06-27T03:14:59.516Z,15.93
2019-06-27T03:17:29.010Z,16.97
2019-06-27T03:19:58.583Z,16.40
2019-06-27T03:22:28.106Z,16.25
2019-06-27T03:24:57.678Z,16.82
2019-06-27T03:27:27.202Z,16.65
2019-06-27T03:29:56.741Z,16.67
2019-06-27T03:32:26.425Z,16.57
2019-06-27T03:34:55.934Z,16.12
2019-06-27T03:37:25.425Z,16.42
2019-06-27T03:39:54.952Z,16.93
2019-06-27T03:42:24.406Z,16.02
2019-06-27T03:44:53.925Z,17.65
2019-06-27T03:47:23.752Z,18.15
2019-06-27T03:49:53.257Z,17.90
2019-06-27T03:52:23.094Z,17.32
2019-06-27T03:54:52.799Z,18.05
2019-06-27T03:57:22.801Z,16.70
2019-06-27T04:00:11.780Z,17.45
2019-06-27T04:02:41.377Z,17.73
2019-06-27T04:05:11.163Z,17.25
2019-06-27T04:07:40.693Z,17.87
2019-06-27T04:10:10.924Z,16.45
2019-06-27T04:12:40.407Z,16.27
2019-06-27T04:15:10.045Z,16.67
2019-06-27T04:17:39.547Z,17.20
2019-06-27T04:20:09.304Z,16.82
2019-06-27T04:22:38.838Z,17.55
2019-06-27T04:25:08.940Z,17.45
2019-06-27T04:27:38.452Z,16.97
2019-06-27T04:30:09.297Z,17.12
2019-06-27T04:32:38.827Z,16.80
2019-06-27T04:35:08.894Z,16.97
2019-06-27T04:37:38.493Z,17.37
2019-06-27T04:40:08.717Z,18.00
2019-06-27T04:42:38.200Z,17.52
2019-06-27T04:45:08.641Z,16.85
2019-06-27T04:47:38.159Z,16.77
2019-06-27T04:50:08.046Z,16.80
2019-06-27T04:52:58.744Z,17.92
2019-06-27T04:55:28.399Z,16.60
2019-06-27T04:58:17.262Z,16.60
2019-06-27T05:00:46.784Z,15.75
2019-06-27T05:03:17.255Z,15.85
2019-06-27T05:05:46.835Z,16.55
2019-06-27T05:08:35.697Z,15.60
2019-06-27T05:11:05.304Z,15.80
2019-06-27T05:13:34.812Z,16.12
2019-06-27T05:16:04.431Z,16.12
2019-06-27T05:18:33.805Z,16.15
2019-06-27T05:21:03.427Z,16.93
2019-06-27T05:23:52.309Z,16.12
2019-06-27T05:26:21.810Z,16.42
2019-06-27T05:28:51.309Z,16.27
2019-06-27T05:31:40.245Z,16.50
2019-06-27T05:34:09.759Z,16.35
2019-06-27T05:36:42.127Z,15.63
2019-06-27T05:39:13.362Z,15.85
2019-06-27T05:41:42.863Z,15.53
2019-06-27T05:44:12.390Z,15.72
2019-06-27T05:46:41.930Z,14.98
2019-06-27T05:49:11.438Z,14.07
2019-06-27T05:51:40.968Z,13.20
2019-06-27T05:54:10.510Z,12.55
2019-06-27T05:56:40.022Z,13.05
2019-06-27T05:59:10.136Z,11.85
2019-06-27T06:01:59.208Z,10.53
2019-06-27T06:04:29.649Z,10.53
2019-06-27T06:06:59.338Z,10.30
2019-06-27T06:09:28.857Z,10.48
2019-06-27T06:11:58.349Z,10.40
2019-06-27T06:14:27.830Z,9.78
2019-06-27T06:17:01.189Z,10.03
2019-06-27T06:19:30.577Z,10.53
2019-06-27T06:22:01.564Z,10.23
2019-06-27T06:24:53.177Z,10.08
2019-06-27T06:27:22.706Z,9.40
2019-06-27T06:29:52.319Z,9.55
2019-06-27T06:32:21.858Z,9.75
2019-06-27T06:34:52.859Z,9.28
2019-06-27T06:37:41.722Z,9.00
2019-06-27T06:40:12.047Z,9.08
2019-06-27T06:42:41.544Z,9.60
2019-06-27T06:45:11.768Z,8.33
2019-06-27T06:48:00.555Z,8.38
2019-06-27T06:50:30.350Z,8.78
2019-06-27T06:53:19.142Z,8.50
2019-06-27T06:55:48.682Z,8.98
2019-06-27T06:58:18.208Z,8.30
2019-06-27T07:01:00.997Z,8.80
2019-06-27T07:03:38.281Z,8.30
2019-06-27T07:06:07.724Z,9.30
2019-06-27T07:08:37.313Z,8.73
2019-06-27T07:11:06.848Z,8.70
2019-06-27T07:13:36.345Z,8.73
2019-06-27T07:16:06.212Z,7.35
2019-06-27T07:18:35.719Z,7.70
2019-06-27T07:21:24.534Z,7.72
2019-06-27T07:23:54.168Z,7.40
2019-06-27T07:26:23.636Z,7.10
2019-06-27T07:28:52.998Z,7.28
2019-06-27T07:31:22.525Z,6.37
2019-06-27T07:33:52.003Z,6.30
2019-06-27T07:36:21.463Z,6.25
2019-06-27T07:38:51.158Z,5.90
2019-06-27T07:41:20.662Z,5.55
2019-06-27T07:43:50.149Z,5.20
2019-06-27T07:46:25.571Z,5.03
2019-06-27T07:48:50.866Z,5.58
2019-06-27T07:51:20.365Z,5.30
2019-06-27T07:53:49.850Z,5.37
2019-06-27T07:56:19.321Z,5.03
2019-06-27T07:59:08.167Z,4.40
2019-06-27T08:01:37.653Z,4.50
2019-06-27T08:04:26.474Z,4.83
2019-06-27T08:06:55.985Z,4.55
2019-06-27T08:09:25.649Z,4.37
2019-06-27T08:11:55.216Z,5.00
2019-06-27T08:14:24.761Z,4.28
2019-06-27T08:16:54.324Z,4.40
2019-06-27T08:19:23.873Z,5.10
2019-06-27T08:21:53.499Z,4.87
2019-06-27T08:24:22.990Z,4.95
2019-06-27T08:26:52.497Z,4.75
2019-06-27T08:29:25.902Z,5.05
2019-06-27T08:31:55.376Z,4.50
2019-06-27T08:34:24.737Z,5.00
2019-06-27T08:36:54.215Z,4.40
2019-06-27T08:39:23.873Z,4.40
2019-06-27T08:41:53.406Z,4.28
2019-06-27T08:44:22.927Z,4.42
2019-06-27T08:46:52.834Z,4.12
2019-06-27T08:49:22.339Z,3.95
2019-06-27T08:51:51.821Z,4.05
2019-06-27T08:54:21.353Z,4.25
2019-06-27T08:56:50.891Z,3.80
2019-06-27T08:59:20.373Z,3.65
2019-06-27T09:01:49.977Z,3.35
2019-06-27T09:04:19.492Z,3.30
2019-06-27T09:06:49.230Z,3.02
2019-06-27T09:09:20.239Z,3.02
2019-06-27T09:11:50.049Z,2.90
2019-06-27T09:14:19.635Z,2.80
2019-06-27T09:16:49.215Z,2.90
2019-06-27T09:19:18.788Z,2.60
2019-06-27T09:21:48.298Z,2.40
2019-06-27T09:24:17.760Z,2.80
2019-06-27T09:26:47.247Z,2.27
2019-06-27T09:29:16.752Z,2.37
2019-06-27T09:31:46.254Z,2.40
2019-06-27T09:34:15.735Z,2.58
2019-06-27T09:36:45.248Z,2.95
2019-06-27T09:39:14.798Z,2.70
2019-06-27T09:42:03.751Z,2.58
2019-06-27T09:44:33.570Z,2.62
2019-06-27T09:47:22.427Z,2.30
2019-06-27T09:49:52.876Z,2.75
2019-06-27T09:52:22.374Z,2.50
2019-06-27T09:54:51.896Z,2.62
2019-06-27T09:57:21.396Z,2.45
2019-06-27T09:59:50.936Z,1.98
2019-06-27T10:02:20.432Z,2.30
2019-06-27T10:04:49.890Z,2.52
2019-06-27T10:07:19.401Z,2.60
2019-06-27T10:09:50.228Z,2.45
2019-06-27T10:12:19.696Z,2.75
2019-06-27T10:14:49.209Z,2.75
2019-06-27T10:17:18.715Z,2.83
2019-06-27T10:19:48.226Z,2.70
2019-06-27T10:22:17.752Z,2.67
2019-06-27T10:24:47.332Z,2.72
2019-06-27T10:27:16.795Z,2.52
2019-06-27T10:30:06.965Z,2.90
2019-06-27T10:32:36.445Z,2.87
2019-06-27T10:35:08.029Z,2.42
2019-06-27T10:37:37.649Z,2.40
2019-06-27T10:40:08.695Z,2.90
2019-06-27T10:42:38.206Z,3.05
2019-06-27T10:45:08.718Z,2.90
2019-06-27T10:47:38.678Z,3.08
2019-06-27T10:50:09.541Z,3.08
2019-06-27T10:52:39.085Z,2.70
2019-06-27T10:55:08.939Z,2.60
2019-06-27T10:57:38.424Z,2.90
2019-06-27T11:00:27.331Z,2.70
2019-06-27T11:02:56.903Z,2.90
2019-06-27T11:05:26.374Z,2.95
2019-06-27T11:07:55.904Z,3.05
2019-06-27T11:10:25.534Z,2.98
2019-06-27T11:12:59.305Z,3.10
2019-06-27T11:15:27.779Z,3.00
2019-06-27T11:17:58.889Z,3.27
2019-06-27T11:20:28.232Z,3.98
2019-06-27T11:22:57.769Z,2.92
2019-06-27T11:25:27.305Z,2.85
2019-06-27T11:27:56.822Z,2.83
2019-06-27T11:30:26.564Z,6.10
2019-06-27T11:32:55.994Z,3.20
2019-06-27T11:35:25.549Z,5.22
2019-06-27T11:37:55.178Z,3.45
2019-06-27T11:40:24.890Z,4.03
2019-06-27T11:42:56.111Z,4.03
2019-06-27T11:45:25.759Z,2.60
2019-06-27T11:47:55.465Z,3.15
2019-06-27T11:50:25.129Z,2.60
2019-06-27T11:52:54.626Z,6.45
2019-06-27T11:55:24.131Z,8.78
2019-06-27T11:57:56.586Z,2.70
2019-06-27T12:00:27.169Z,3.50
2019-06-27T12:02:56.647Z,2.87
2019-06-27T12:05:29.647Z,3.60
2019-06-27T12:07:59.280Z,2.60
2019-06-27T12:10:30.000Z,2.65
2019-06-27T12:13:02.503Z,2.40
2019-06-27T12:15:33.750Z,2.67
2019-06-27T12:18:03.244Z,2.55
2019-06-27T12:20:32.697Z,3.35
2019-06-27T12:23:02.484Z,2.65
2019-06-27T12:25:31.976Z,2.60
2019-06-27T12:28:01.487Z,2.70
2019-06-27T12:30:30.969Z,2.67
2019-06-27T12:33:00.415Z,2.65
2019-06-27T12:35:29.918Z,3.33
2019-06-27T12:37:59.448Z,2.30
2019-06-27T12:40:29.165Z,2.50
2019-06-27T12:42:58.663Z,2.50
2019-06-27T12:45:28.144Z,4.92
2019-06-27T12:48:06.117Z,8.30
2019-06-27T12:50:30.373Z,2.80
2019-06-27T12:53:00.007Z,13.03
2019-06-27T12:55:29.531Z,15.60
2019-06-27T12:58:00.532Z,3.10
2019-06-27T13:00:38.618Z,2.72
2019-06-27T13:03:08.075Z,2.30
2019-06-27T13:05:37.546Z,3.33
2019-06-27T13:08:07.147Z,2.58
2019-06-27T13:10:38.499Z,11.10
2019-06-27T13:13:09.621Z,3.17
2019-06-27T13:15:39.453Z,2.20
2019-06-27T13:18:28.272Z,1.98
2019-06-27T13:21:00.140Z,2.10
2019-06-27T13:23:32.744Z,2.02
2019-06-27T13:26:02.286Z,2.10
2019-06-27T13:28:37.541Z,2.22
2019-06-27T13:31:07.114Z,2.00
2019-06-27T13:33:36.706Z,2.35
2019-06-27T13:36:06.294Z,1.90
2019-06-27T13:38:36.110Z,2.02
2019-06-27T13:41:05.763Z,1.95
2019-06-27T13:43:35.304Z,2.10
2019-06-27T13:46:04.977Z,2.02
2019-06-27T13:48:34.943Z,2.00
2019-06-27T13:51:23.751Z,1.85
2019-06-27T13:53:53.229Z,1.90
2019-06-27T13:56:22.686Z,1.80
2019-06-27T13:58:52.232Z,2.37
2019-06-27T14:01:21.725Z,2.60
2019-06-27T14:03:51.262Z,2.30
2019-06-27T14:06:21.003Z,2.25
2019-06-27T14:08:50.827Z,2.37
2019-06-27T14:11:20.708Z,2.40
2019-06-27T14:13:50.744Z,2.35
2019-06-27T14:16:20.283Z,2.30
2019-06-27T14:18:49.908Z,2.17
2019-06-27T14:21:19.485Z,1.87
2019-06-27T14:23:48.970Z,1.80
2019-06-27T14:26:18.496Z,2.10
2019-06-27T14:28:51.060Z,2.05
2019-06-27T14:31:20.868Z,2.62
2019-06-27T14:33:56.176Z,2.30
2019-06-27T14:36:47.789Z,2.33
2019-06-27T14:39:17.295Z,2.30
2019-06-27T14:41:48.302Z,2.00
2019-06-27T14:44:17.830Z,1.98
2019-06-27T14:46:47.109Z,2.10
2019-06-27T14:49:16.607Z,2.05
2019-06-27T14:51:48.461Z,2.33
2019-06-27T14:54:17.970Z,2.10
2019-06-27T14:56:48.185Z,2.15
2019-06-27T14:59:23.427Z,2.55
2019-06-27T15:01:52.943Z,2.15
2019-06-27T15:04:22.399Z,2.10
2019-06-27T15:06:53.708Z,1.92
2019-06-27T15:09:26.113Z,2.00
2019-06-27T15:11:57.080Z,2.50
2019-06-27T15:14:26.630Z,2.37
2019-06-27T15:16:57.640Z,2.60
2019-06-27T15:19:27.127Z,2.72
2019-06-27T15:21:58.226Z,2.20
2019-06-27T15:24:28.029Z,2.70
2019-06-27T15:26:57.514Z,2.50
2019-06-27T15:29:27.001Z,2.35
2019-06-27T15:31:56.579Z,2.42
2019-06-27T15:34:26.059Z,2.40
2019-06-27T15:36:56.729Z,2.35
2019-06-27T15:39:28.017Z,2.30
2019-06-27T15:41:58.734Z,2.52
2019-06-27T15:44:28.297Z,2.60
2019-06-27T15:46:59.266Z,3.02
2019-06-27T15:49:31.473Z,3.27
2019-06-27T15:52:01.095Z,2.80
2019-06-27T15:54:30.964Z,2.55
2019-06-27T15:57:05.268Z,2.52
2019-06-27T15:59:36.519Z,2.45
2019-06-27T16:02:06.133Z,2.65
2019-06-27T16:04:41.792Z,2.62
2019-06-27T16:07:19.871Z,2.83
2019-06-27T16:09:49.386Z,2.22
2019-06-27T16:12:27.779Z,2.40
2019-06-27T16:14:58.850Z,2.52
2019-06-27T16:17:29.888Z,2.47
2019-06-27T16:19:59.379Z,2.67
2019-06-27T16:22:31.988Z,2.27
2019-06-27T16:25:01.205Z,2.50
2019-06-27T16:27:30.826Z,2.40
2019-06-27T16:30:00.310Z,2.58
2019-06-27T16:32:30.027Z,2.10
2019-06-27T16:34:59.712Z,2.20
2019-06-27T16:37:29.201Z,2.50
2019-06-27T16:40:03.064Z,2.10
2019-06-27T16:42:33.323Z,2.35
2019-06-27T16:45:03.136Z,2.50
2019-06-27T16:47:32.631Z,2.52
2019-06-27T16:50:02.123Z,2.10
2019-06-27T16:52:33.704Z,2.20
2019-06-27T16:55:03.632Z,2.25
2019-06-27T16:57:33.535Z,1.80
2019-06-27T17:00:03.510Z,1.70
2019-06-27T17:02:32.834Z,1.85
2019-06-27T17:05:04.003Z,1.60
2019-06-27T17:07:35.932Z,1.67
2019-06-27T17:10:09.013Z,1.60
2019-06-27T17:12:38.988Z,2.02
2019-06-27T17:15:10.089Z,1.70
2019-06-27T17:17:43.964Z,1.62
2019-06-27T17:20:15.556Z,1.75
2019-06-27T17:22:45.064Z,1.60
2019-06-27T17:25:15.369Z,1.72
2019-06-27T17:27:45.916Z,1.57
2019-06-27T17:30:17.987Z,1.72
2019-06-27T17:32:54.314Z,1.62
2019-06-27T17:35:26.844Z,1.70
2019-06-27T17:37:56.293Z,1.52
2019-06-27T17:40:25.961Z,1.60
2019-06-27T17:42:55.463Z,1.55
2019-06-27T17:45:26.507Z,1.60
2019-06-27T17:47:56.912Z,1.50
2019-06-27T17:50:26.382Z,1.80
2019-06-27T17:52:59.931Z,1.72
2019-06-27T17:55:28.173Z,1.80
2019-06-27T17:57:58.657Z,1.65
2019-06-27T18:00:31.425Z,1.67
2019-06-27T18:03:00.885Z,1.70
2019-06-27T18:05:30.358Z,1.50
2019-06-27T18:08:02.364Z,1.60
2019-06-27T18:10:31.847Z,1.67
2019-06-27T18:13:01.348Z,1.50
2019-06-27T18:15:30.950Z,2.00
2019-06-27T18:18:00.475Z,1.90
2019-06-27T18:20:29.990Z,1.70
2019-06-27T18:22:59.479Z,2.27
2019-06-27T18:25:33.007Z,1.90
2019-06-27T18:28:00.176Z,1.77
2019-06-27T18:30:30.219Z,2.05
2019-06-27T18:33:03.031Z,1.75
2019-06-27T18:35:32.546Z,2.10
2019-06-27T18:38:04.817Z,2.00
2019-06-27T18:40:34.322Z,2.00
2019-06-27T18:43:07.847Z,1.98
2019-06-27T18:45:38.820Z,2.00
2019-06-27T18:48:08.412Z,2.05
2019-06-27T18:50:37.874Z,2.15
2019-06-27T18:53:08.896Z,2.20
2019-06-27T18:55:38.393Z,2.58
2019-06-27T18:58:07.905Z,2.22
2019-06-27T19:00:46.178Z,2.15
2019-06-27T19:03:15.865Z,2.20
2019-06-27T19:05:45.643Z,2.20
2019-06-27T19:08:15.135Z,2.60
2019-06-27T19:10:46.293Z,2.30
2019-06-27T19:13:17.891Z,2.50
2019-06-27T19:15:49.383Z,2.00
2019-06-27T19:18:22.029Z,2.10
2019-06-27T19:20:53.437Z,2.30
2019-06-27T19:23:26.560Z,2.45
2019-06-27T19:25:57.657Z,2.20
2019-06-27T19:28:30.003Z,1.92
2019-06-27T19:30:59.477Z,2.35
2019-06-27T19:33:32.443Z,2.60
2019-06-27T19:36:03.319Z,2.22
2019-06-27T19:38:33.181Z,2.35
2019-06-27T19:41:04.005Z,2.17
2019-06-27T19:43:36.652Z,2.20
2019-06-27T19:46:07.909Z,2.17
2019-06-27T19:48:37.428Z,2.05
2019-06-27T19:51:06.918Z,2.25
2019-06-27T19:53:39.133Z,2.30
2019-06-27T19:56:10.165Z,2.40
2019-06-27T19:58:39.653Z,2.20
2019-06-27T20:01:10.364Z,2.10
2019-06-27T20:03:42.111Z,2.15
2019-06-27T20:06:14.793Z,2.37
2019-06-27T20:08:46.547Z,2.40
2019-06-27T20:11:25.270Z,2.20
2019-06-27T20:14:03.910Z,2.52
2019-06-27T20:19:28.101Z,2.12
2019-06-27T20:21:57.698Z,2.40
2019-06-27T20:24:27.176Z,2.15
2019-06-27T20:26:56.702Z,2.22
2019-06-27T20:29:26.217Z,2.00
2019-06-27T20:31:55.861Z,2.12
2019-06-27T20:34:25.386Z,2.20
2019-06-27T20:36:57.450Z,2.58
2019-06-27T20:39:27.313Z,2.50
2019-06-27T20:41:56.801Z,2.50
2019-06-27T20:44:26.874Z,2.47
2019-06-27T20:46:56.369Z,2.25
2019-06-27T20:49:25.835Z,2.15
2019-06-27T20:51:56.317Z,2.27
2019-06-27T20:54:26.290Z,2.20
2019-06-27T20:57:01.668Z,2.27
2019-06-27T20:59:32.820Z,2.15
2019-06-27T21:02:05.853Z,2.10
2019-06-27T21:04:35.770Z,2.00
2019-06-27T21:07:05.355Z,2.10
2019-06-27T21:09:36.326Z,2.35
2019-06-27T21:12:06.229Z,2.00
2019-06-27T21:14:35.547Z,2.00
2019-06-27T21:17:07.700Z,1.82
2019-06-27T21:19:39.481Z,2.08
2019-06-27T21:22:08.965Z,2.40
2019-06-27T21:24:40.382Z,2.00
2019-06-27T21:27:12.448Z,1.90
2019-06-27T21:29:42.257Z,1.90
2019-06-27T21:32:11.785Z,2.08
2019-06-27T21:34:41.332Z,2.02
2019-06-27T21:37:10.895Z,1.95
2019-06-27T21:39:41.420Z,1.80
2019-06-27T21:42:18.214Z,1.92
2019-06-27T21:44:51.406Z,2.08
2019-06-27T21:47:20.897Z,2.47
2019-06-27T21:49:50.399Z,2.37
2019-06-27T21:52:19.902Z,2.20
2019-06-27T21:54:50.813Z,2.10
2019-06-27T21:57:21.360Z,1.98
2019-06-27T21:59:51.922Z,2.30
2019-06-27T22:02:22.861Z,1.82
2019-06-27T22:04:55.826Z,2.35
2019-06-27T22:07:25.314Z,2.08
2019-06-27T22:09:54.816Z,2.10
2019-06-27T22:12:24.173Z,2.30
2019-06-27T22:14:58.032Z,2.10
2019-06-27T22:17:29.401Z,1.90
2019-06-27T22:20:14.058Z,2.50
2019-06-27T22:22:30.887Z,2.10
2019-06-27T22:25:03.279Z,2.27
2019-06-27T22:27:34.927Z,2.17
2019-06-27T22:30:09.362Z,2.20
2019-06-27T22:32:40.752Z,2.10
2019-06-27T22:35:13.727Z,1.80
2019-06-27T22:37:47.643Z,2.00
2019-06-27T22:40:20.856Z,2.08
2019-06-27T22:42:53.948Z,1.90
2019-06-27T22:45:28.179Z,1.75
2019-06-27T22:48:00.778Z,2.10
2019-06-27T22:50:34.109Z,1.70
2019-06-27T22:53:05.172Z,1.90
2019-06-27T22:55:38.749Z,2.02
2019-06-27T22:58:09.326Z,2.22
2019-06-27T23:00:38.962Z,2.00
2019-06-27T23:03:09.996Z,1.87
2019-06-27T23:05:39.467Z,2.10
2019-06-27T23:08:09.372Z,1.70
2019-06-27T23:10:40.352Z,2.05
2019-06-27T23:13:11.622Z,2.22
2019-06-27T23:15:42.912Z,1.87
2019-06-27T23:18:12.576Z,2.25
2019-06-27T23:20:43.206Z,1.82
2019-06-27T23:23:13.842Z,2.00
2019-06-27T23:25:43.332Z,2.37
2019-06-27T23:28:16.813Z,2.20
2019-06-27T23:30:47.754Z,2.05
2019-06-27T23:33:19.577Z,2.02
2019-06-27T23:35:49.039Z,2.00
2019-06-27T23:38:19.644Z,2.47
2019-06-27T23:40:50.277Z,2.40
2019-06-27T23:43:21.241Z,2.00
2019-06-27T23:45:52.134Z,2.00
2019-06-27T23:48:23.404Z,1.80
2019-06-27T23:50:54.320Z,2.40
2019-06-27T23:53:25.542Z,2.08
2019-06-27T23:55:55.017Z,2.00
2019-06-27T23:58:27.266Z,1.98
